Time;durP1;ratioP1;P1;durP2;ratioP2;P2;SDS_P1;SDS_P2;PMS_P1;PMS_P2;Temp;Humidity;BMP_temperature;BMP_pressure;BME280_temperature;BME280_humidity;BME280_pressure;Samples;Min_cycle;Max_cycle;Signal;HPM_P1;HPM_P2
2022/02/20 05:00:27;;;;;;;1.03;0.90;;;6.10;99.90;;;;;;5929668;23;20409;-67
2022/02/20 05:02:54;;;;;;;1.03;0.50;;;6.10;99.90;;;;;;4965214;29;20436;-67
2022/02/20 05:05:20;;;;;;;1.90;0.77;;;6.10;99.90;;;;;;4962336;29;20783;-66
2022/02/20 05:07:47;;;;;;;0.73;0.50;;;6.10;99.90;;;;;;4961184;29;20455;-67
2022/02/20 05:10:14;;;;;;;0.93;0.70;;;6.10;99.90;;;;;;4960378;28;20452;-67
2022/02/20 05:12:41;;;;;;;1.90;0.70;;;6.10;99.90;;;;;;4959203;28;20456;-67
2022/02/20 05:15:08;;;;;;;0.60;0.60;;;6.20;99.90;;;;;;4959447;28;20456;-67
2022/02/20 05:17:40;;;;;;;2.13;0.60;;;6.20;99.90;;;;;;4959812;28;20454;-68
2022/02/20 05:20:09;;;;;;;1.00;0.70;;;6.20;99.90;;;;;;4961106;28;20467;-70
2022/02/20 05:22:35;;;;;;;2.53;0.90;;;6.20;99.90;;;;;;4959307;28;20459;-67
2022/02/20 05:25:02;;;;;;;0.73;0.60;;;6.20;99.90;;;;;;4961835;28;20455;-67
2022/02/20 05:27:30;;;;;;;1.63;0.90;;;6.30;99.90;;;;;;4962614;28;20455;-67
2022/02/20 05:29:57;;;;;;;0.97;0.63;;;6.20;99.90;;;;;;4959471;28;20470;-67
2022/02/20 05:32:24;;;;;;;3.07;0.90;;;6.20;99.90;;;;;;4958966;28;20472;-67
2022/02/20 05:34:52;;;;;;;1.67;0.70;;;6.20;99.90;;;;;;4958932;28;20456;-66
2022/02/20 05:37:19;;;;;;;3.10;0.73;;;6.10;99.90;;;;;;4958339;28;20852;-66
2022/02/20 05:39:46;;;;;;;2.83;1.00;;;6.10;99.90;;;;;;4958513;28;20455;-67
2022/02/20 05:42:13;;;;;;;3.60;0.80;;;6.00;99.90;;;;;;4958422;28;21077;-67
2022/02/20 05:44:40;;;;;;;1.13;0.97;;;6.10;99.90;;;;;;4958734;28;20463;-68
2022/02/20 05:47:07;;;;;;;1.17;0.70;;;6.10;99.90;;;;;;4958576;28;20943;-67
2022/02/20 05:49:33;;;;;;;1.57;0.70;;;6.00;99.90;;;;;;4958242;28;20467;-67
2022/02/20 05:52:01;;;;;;;1.70;0.60;;;6.00;99.90;;;;;;4958142;28;20476;-67
2022/02/20 05:54:28;;;;;;;1.00;0.60;;;6.00;99.90;;;;;;4958603;28;20452;-67
2022/02/20 05:56:55;;;;;;;1.53;0.80;;;6.00;99.90;;;;;;4958296;28;20460;-67
2022/02/20 05:59:21;;;;;;;1.93;0.80;;;6.10;99.90;;;;;;4958187;28;20509;-67
2022/02/20 06:01:48;;;;;;;3.07;0.80;;;6.00;99.90;;;;;;4958654;28;20971;-67
2022/02/20 06:04:15;;;;;;;2.17;0.83;;;6.00;99.90;;;;;;4958612;28;20460;-67
2022/02/20 06:06:41;;;;;;;0.93;0.93;;;6.10;99.90;;;;;;4958485;28;20463;-68
2022/02/20 06:09:10;;;;;;;4.30;0.90;;;6.10;99.90;;;;;;4958689;28;20498;-69
2022/02/20 06:11:37;;;;;;;0.63;0.63;;;6.20;99.90;;;;;;4958109;28;20475;-67
2022/02/20 06:14:04;;;;;;;1.40;0.70;;;6.20;99.90;;;;;;4958293;28;20555;-67
2022/02/20 06:16:30;;;;;;;2.53;0.80;;;6.20;99.90;;;;;;4958144;28;20467;-67
2022/02/20 06:18:59;;;;;;;2.00;1.27;;;6.20;99.90;;;;;;4959335;28;20495;-67
2022/02/20 06:21:26;;;;;;;3.03;1.00;;;6.20;99.90;;;;;;4957450;28;20491;-67
2022/02/20 06:23:53;;;;;;;2.33;0.80;;;6.20;99.90;;;;;;4958489;28;20487;-68
2022/02/20 06:26:21;;;;;;;1.10;1.00;;;6.30;99.90;;;;;;4958545;28;20802;-66
2022/02/20 06:28:48;;;;;;;0.73;0.60;;;6.40;99.90;;;;;;4958232;28;20818;-68
2022/02/20 06:31:15;;;;;;;5.40;0.90;;;6.40;99.90;;;;;;4957563;28;20551;-68
2022/02/20 06:33:42;;;;;;;0.97;0.70;;;6.30;99.90;;;;;;4957361;28;20571;-68
2022/02/20 06:36:09;;;;;;;1.77;1.00;;;6.30;99.90;;;;;;4957434;28;20530;-67
2022/02/20 06:38:36;;;;;;;1.03;0.80;;;6.30;99.90;;;;;;4957304;28;20461;-67
2022/02/20 06:41:02;;;;;;;0.60;0.60;;;6.30;99.90;;;;;;4956886;28;21006;-67
2022/02/20 06:43:31;;;;;;;1.70;0.60;;;6.30;99.90;;;;;;4959968;28;20443;-68
2022/02/20 06:45:57;;;;;;;0.63;0.60;;;6.30;99.90;;;;;;4973904;28;20982;-67
2022/02/20 06:48:24;;;;;;;0.90;0.60;;;6.40;99.90;;;;;;4962661;28;20475;-67
2022/02/20 06:50:51;;;;;;;1.13;0.60;;;6.40;99.90;;;;;;4958584;28;20476;-68
2022/02/20 06:53:17;;;;;;;1.70;0.70;;;6.30;99.90;;;;;;4958387;28;20470;-69
2022/02/20 06:55:44;;;;;;;0.50;0.50;;;6.30;99.90;;;;;;4957261;28;20969;-67
2022/02/20 06:58:11;;;;;;;0.60;0.60;;;6.20;99.90;;;;;;4964126;28;21059;-70
2022/02/20 07:00:39;;;;;;;1.23;0.70;;;6.30;99.90;;;;;;4963187;28;20489;-69
2022/02/20 07:03:06;;;;;;;0.50;0.50;;;6.20;99.90;;;;;;4957497;28;20463;-68
2022/02/20 07:05:33;;;;;;;0.77;0.57;;;6.30;99.90;;;;;;4957453;28;20456;-69
2022/02/20 07:08:00;;;;;;;0.80;0.80;;;6.20;99.90;;;;;;4958755;28;20466;-68
2022/02/20 07:10:27;;;;;;;1.90;0.60;;;6.20;99.90;;;;;;4957875;28;20462;-69
2022/02/20 07:12:53;;;;;;;1.23;0.43;;;6.20;99.90;;;;;;4957105;28;20455;-68
2022/02/20 07:15:20;;;;;;;0.60;0.57;;;6.30;99.90;;;;;;4957016;28;20467;-68
2022/02/20 07:17:48;;;;;;;1.90;1.63;;;6.30;99.90;;;;;;4956990;28;20459;-68
2022/02/20 07:20:15;;;;;;;0.73;0.73;;;6.30;99.90;;;;;;4956903;28;20808;-70
2022/02/20 07:22:42;;;;;;;0.50;0.50;;;6.30;99.90;;;;;;4957083;28;20480;-67
2022/02/20 07:25:09;;;;;;;0.83;0.70;;;6.30;99.90;;;;;;4956394;28;20453;-69
2022/02/20 07:27:39;;;;;;;0.63;0.50;;;6.30;99.90;;;;;;4956724;28;20860;-69
2022/02/20 07:30:07;;;;;;;0.90;0.90;;;6.40;99.90;;;;;;4956308;28;20511;-68
2022/02/20 07:32:34;;;;;;;0.50;0.50;;;6.40;99.90;;;;;;4955647;28;20998;-69
2022/02/20 07:35:03;;;;;;;1.57;0.60;;;6.50;99.90;;;;;;4956778;28;20826;-69
2022/02/20 07:37:29;;;;;;;0.53;0.53;;;6.40;99.90;;;;;;4956518;28;20463;-69
2022/02/20 07:39:57;;;;;;;1.77;0.80;;;6.50;99.90;;;;;;4956728;28;20511;-69
2022/02/20 07:42:24;;;;;;;2.97;0.90;;;6.50;99.90;;;;;;4956433;28;20483;-69
2022/02/20 07:44:51;;;;;;;2.67;0.60;;;6.60;99.90;;;;;;4956686;28;20859;-70
2022/02/20 07:47:18;;;;;;;1.60;0.93;;;6.60;99.90;;;;;;4957236;28;20510;-70
2022/02/20 07:49:44;;;;;;;1.63;0.57;;;6.60;99.90;;;;;;4956683;28;20456;-69
2022/02/20 07:52:12;;;;;;;1.13;0.60;;;6.70;99.90;;;;;;4955610;28;20990;-69
2022/02/20 07:54:39;;;;;;;1.30;0.50;;;6.70;99.90;;;;;;4956835;28;20452;-69
2022/02/20 07:57:06;;;;;;;0.50;0.50;;;6.90;99.90;;;;;;4955956;28;20831;-69
2022/02/20 07:59:33;;;;;;;1.77;0.80;;;6.90;99.90;;;;;;4956077;28;20459;-69
2022/02/20 08:02:00;;;;;;;0.90;0.70;;;7.00;99.90;;;;;;4955441;28;20498;-69
2022/02/20 08:04:26;;;;;;;1.07;0.60;;;7.10;99.90;;;;;;4957442;28;20912;-69
2022/02/20 08:06:53;;;;;;;2.80;0.70;;;7.00;99.90;;;;;;4956389;28;20440;-69
2022/02/20 08:09:21;;;;;;;1.77;1.03;;;7.10;99.90;;;;;;4955677;28;20456;-69
2022/02/20 08:11:48;;;;;;;2.57;0.90;;;7.20;99.90;;;;;;4956205;28;20554;-69
2022/02/20 08:14:15;;;;;;;1.30;0.77;;;7.30;99.90;;;;;;4956576;28;20531;-69
2022/02/20 08:16:42;;;;;;;1.00;0.60;;;7.40;99.90;;;;;;4956266;28;20460;-69
2022/02/20 08:19:09;;;;;;;2.43;0.90;;;7.60;99.90;;;;;;4955725;28;20460;-69
2022/02/20 08:21:35;;;;;;;1.67;0.73;;;7.70;99.90;;;;;;4956059;28;20487;-68
2022/02/20 08:24:02;;;;;;;1.70;0.93;;;8.00;99.90;;;;;;4956788;28;20463;-69
2022/02/20 08:26:30;;;;;;;1.23;0.60;;;8.10;99.90;;;;;;4955547;28;20460;-69
2022/02/20 08:28:57;;;;;;;2.33;0.87;;;8.20;99.90;;;;;;4957163;28;20456;-68
2022/02/20 08:31:23;;;;;;;1.23;1.10;;;8.20;99.90;;;;;;4957297;28;20480;-69
2022/02/20 08:33:51;;;;;;;3.40;0.70;;;8.30;99.90;;;;;;4956195;28;20448;-71
2022/02/20 08:36:19;;;;;;;0.93;0.90;;;8.10;99.90;;;;;;4955856;28;20550;-68
2022/02/20 08:38:46;;;;;;;1.40;0.60;;;8.00;99.90;;;;;;4955948;28;20444;-69
2022/02/20 08:41:13;;;;;;;0.77;0.60;;;8.00;99.90;;;;;;4955263;28;21062;-68
2022/02/20 08:43:41;;;;;;;3.70;1.17;;;8.00;99.90;;;;;;4955573;28;20462;-68
2022/02/20 08:46:08;;;;;;;0.73;0.73;;;7.90;99.90;;;;;;4958679;28;20943;-69
2022/02/20 08:48:36;;;;;;;1.17;0.70;;;8.00;99.90;;;;;;4958787;28;20514;-68
2022/02/20 08:51:04;;;;;;;1.40;0.80;;;8.00;99.90;;;;;;4958866;28;20574;-68
2022/02/20 08:53:30;;;;;;;2.03;0.87;;;8.00;99.90;;;;;;4958863;28;20498;-69
2022/02/20 08:55:57;;;;;;;3.60;0.77;;;8.10;99.90;;;;;;4959700;28;20459;-68
2022/02/20 08:58:24;;;;;;;1.03;0.97;;;8.20;99.90;;;;;;4960492;28;20440;-69
2022/02/20 09:00:52;;;;;;;0.93;0.93;;;8.20;99.90;;;;;;4958513;28;20483;-68
2022/02/20 09:03:19;;;;;;;3.17;0.90;;;8.20;99.90;;;;;;4958603;28;20491;-69
2022/02/20 09:05:45;;;;;;;1.87;0.93;;;8.10;99.90;;;;;;4958788;28;20467;-69
2022/02/20 09:08:12;;;;;;;0.70;0.70;;;8.20;99.90;;;;;;4958724;28;20966;-69
2022/02/20 09:10:40;;;;;;;0.70;0.70;;;8.20;99.90;;;;;;4958629;28;20479;-70
2022/02/20 09:13:07;;;;;;;0.83;0.70;;;8.30;99.90;;;;;;4958733;28;20519;-69
2022/02/20 09:15:34;;;;;;;0.83;0.80;;;8.40;99.90;;;;;;4958486;28;20460;-68
2022/02/20 09:18:03;;;;;;;1.30;1.20;;;8.30;99.90;;;;;;4958524;28;20556;-68
2022/02/20 09:20:30;;;;;;;0.93;0.83;;;8.40;99.90;;;;;;4958315;28;20464;-69
2022/02/20 09:22:56;;;;;;;0.83;0.60;;;8.40;99.90;;;;;;4958355;28;20495;-69
2022/02/20 09:25:23;;;;;;;2.00;0.73;;;8.50;99.90;;;;;;4958573;28;20452;-69
2022/02/20 09:27:50;;;;;;;3.03;0.60;;;8.50;99.90;;;;;;4959102;28;20868;-68
2022/02/20 09:30:17;;;;;;;1.23;0.80;;;8.50;99.90;;;;;;4959619;28;20519;-69
2022/02/20 09:32:45;;;;;;;3.13;0.80;;;8.50;99.90;;;;;;4958568;28;20463;-68
2022/02/20 09:35:13;;;;;;;2.47;0.77;;;8.60;99.90;;;;;;4964249;28;20440;-69
2022/02/20 09:37:40;;;;;;;2.30;0.73;;;8.70;99.90;;;;;;4958080;28;20951;-69
2022/02/20 09:40:08;;;;;;;0.83;0.80;;;8.70;99.90;;;;;;4958186;28;20467;-69
2022/02/20 09:42:35;;;;;;;0.83;0.83;;;8.80;99.90;;;;;;4958432;28;20494;-69
2022/02/20 09:45:02;;;;;;;1.33;0.70;;;8.80;99.90;;;;;;4958627;28;20455;-68
2022/02/20 09:47:30;;;;;;;2.20;0.70;;;8.70;99.90;;;;;;4974516;28;20459;-69
2022/02/20 09:49:59;;;;;;;0.60;0.50;;;8.70;99.90;;;;;;4972553;28;20448;-69
2022/02/20 09:52:28;;;;;;;1.77;0.70;;;8.70;99.90;;;;;;4958029;28;21035;-69
2022/02/20 09:54:55;;;;;;;0.70;0.70;;;8.70;99.90;;;;;;4957990;28;20467;-69
2022/02/20 09:57:21;;;;;;;0.70;0.70;;;8.70;99.90;;;;;;4957153;28;20463;-69
2022/02/20 09:59:48;;;;;;;0.77;0.60;;;8.70;99.90;;;;;;4957682;28;20451;-69
2022/02/20 10:02:17;;;;;;;0.73;0.73;;;8.50;99.90;;;;;;4962491;28;20510;-69
2022/02/20 10:04:46;;;;;;;0.40;0.40;;;8.50;99.90;;;;;;4962957;28;20483;-70
2022/02/20 10:07:30;;;;;;;1.90;0.87;;;8.60;99.90;;;;;;4962871;28;20503;-68
2022/02/20 10:09:58;;;;;;;2.20;0.77;;;8.70;99.90;;;;;;4960640;28;20444;-68
2022/02/20 10:12:26;;;;;;;3.00;0.90;;;8.80;99.90;;;;;;4960922;28;20527;-68
2022/02/20 10:14:53;;;;;;;0.57;0.57;;;8.80;99.90;;;;;;4960339;28;20459;-68
2022/02/20 10:17:22;;;;;;;0.93;0.83;;;8.80;99.90;;;;;;4959036;28;20452;-69
2022/02/20 10:19:54;;;;;;;0.30;0.30;;;8.90;99.90;;;;;;4959733;28;20502;-69
2022/02/20 10:22:34;;;;;;;0.50;0.50;;;8.90;99.90;;;;;;4961722;28;20510;-68
2022/02/20 10:25:03;;;;;;;0.90;0.80;;;8.90;99.90;;;;;;4964453;28;20440;-68
2022/02/20 10:27:30;;;;;;;0.80;0.80;;;8.90;99.90;;;;;;4957481;28;20467;-69
2022/02/20 10:30:18;;;;;;;0.70;0.70;;;9.00;99.90;;;;;;4957549;28;20460;-69
2022/02/20 10:32:47;;;;;;;0.93;0.80;;;9.20;99.90;;;;;;4957575;28;20436;-68
2022/02/20 10:35:15;;;;;;;0.57;0.57;;;9.40;99.90;;;;;;4957129;28;20495;-68
2022/02/20 10:37:44;;;;;;;0.50;0.50;;;9.70;99.90;;;;;;4957239;28;20511;-68
2022/02/20 10:40:28;;;;;;;0.70;0.70;;;9.70;99.90;;;;;;4957571;28;20826;-68
2022/02/20 10:42:56;;;;;;;0.90;0.90;;;9.80;99.90;;;;;;4957809;28;20491;-68
2022/02/20 10:45:25;;;;;;;0.50;0.50;;;9.80;99.90;;;;;;4970103;28;20459;-68
2022/02/20 10:47:52;;;;;;;0.70;0.50;;;9.80;99.90;;;;;;4960694;28;20573;-68
2022/02/20 10:50:21;;;;;;;0.70;0.70;;;9.80;99.90;;;;;;4956774;28;20452;-68
2022/02/20 10:53:06;;;;;;;0.70;0.70;;;9.70;99.90;;;;;;4957154;28;20452;-69
2022/02/20 10:55:36;;;;;;;0.60;0.60;;;9.70;99.90;;;;;;4956723;28;20460;-69
2022/02/20 10:58:09;;;;;;;1.07;0.77;;;9.60;99.90;;;;;;4956857;28;20440;-69
2022/02/20 11:00:36;;;;;;;1.80;0.70;;;9.60;99.90;;;;;;4956537;28;20484;-69
2022/02/20 11:03:08;;;;;;;0.73;0.40;;;9.60;99.90;;;;;;4956680;28;20475;-69
2022/02/20 11:05:35;;;;;;;0.77;0.70;;;9.70;99.90;;;;;;4956419;28;20495;-69
2022/02/20 11:08:05;;;;;;;0.50;0.50;;;10.00;99.90;;;;;;4956466;28;20456;-69
2022/02/20 11:10:33;;;;;;;0.40;0.40;;;10.10;99.90;;;;;;4956298;28;20983;-69
2022/02/20 11:13:00;;;;;;;0.50;0.50;;;10.10;99.90;;;;;;4956492;28;20459;-69
2022/02/20 11:15:28;;;;;;;1.37;0.80;;;10.00;99.90;;;;;;4956682;28;20463;-69
2022/02/20 11:17:56;;;;;;;0.40;0.40;;;9.90;99.90;;;;;;4957375;28;20467;-70
2022/02/20 11:20:23;;;;;;;2.13;0.70;;;9.90;99.90;;;;;;4956167;28;20456;-68
2022/02/20 11:22:54;;;;;;;1.20;0.57;;;9.90;99.90;;;;;;4956273;28;20483;-69
2022/02/20 11:25:24;;;;;;;1.00;0.63;;;10.00;99.90;;;;;;4957350;28;20440;-69
2022/02/20 11:27:52;;;;;;;0.77;0.60;;;9.80;99.90;;;;;;4956710;28;20995;-68
2022/02/20 11:30:19;;;;;;;3.70;0.80;;;9.90;99.90;;;;;;4956213;28;20829;-69
2022/02/20 11:32:48;;;;;;;0.50;0.50;;;9.80;99.90;;;;;;4959348;28;20851;-68
2022/02/20 11:35:15;;;;;;;2.00;0.60;;;9.80;99.90;;;;;;4968136;28;20459;-68
2022/02/20 11:37:49;;;;;;;0.40;0.40;;;9.70;99.90;;;;;;4960548;28;20459;-69
2022/02/20 11:40:16;;;;;;;0.83;0.53;;;9.70;99.90;;;;;;4955852;28;20915;-69
2022/02/20 11:43:14;;;;;;;1.77;0.50;;;9.80;99.90;;;;;;4956075;28;20910;-68
2022/02/20 11:46:04;;;;;;;0.60;0.50;;;9.70;99.90;;;;;;4897080;29;20989;-69
2022/02/20 11:48:31;;;;;;;0.70;0.50;;;9.70;99.90;;;;;;4951987;28;20471;-68
2022/02/20 11:51:15;;;;;;;0.43;0.43;;;9.70;99.90;;;;;;4956005;28;20486;-69
2022/02/20 11:53:42;;;;;;;0.47;0.47;;;9.80;99.90;;;;;;4957230;28;20444;-68
2022/02/20 11:56:12;;;;;;;1.50;0.80;;;9.80;99.90;;;;;;4955870;28;20907;-68
2022/02/20 11:58:42;;;;;;;0.50;0.50;;;9.90;99.90;;;;;;4956083;28;20454;-69
2022/02/20 12:01:18;;;;;;;0.60;0.60;;;9.90;99.90;;;;;;4955640;28;20563;-69
2022/02/20 12:04:04;;;;;;;0.50;0.50;;;9.90;99.90;;;;;;4956616;28;20468;-69
2022/02/20 12:06:38;;;;;;;1.13;0.93;;;9.90;99.90;;;;;;4955710;28;20503;-68
2022/02/20 12:09:25;;;;;;;1.07;0.60;;;10.00;99.90;;;;;;4955821;28;20441;-68
2022/02/20 12:11:52;;;;;;;0.60;0.60;;;10.00;99.90;;;;;;4955605;28;20480;-68
2022/02/20 12:14:22;;;;;;;0.57;0.57;;;10.00;99.90;;;;;;4955616;28;20440;-69
2022/02/20 12:16:51;;;;;;;0.87;0.40;;;10.00;99.90;;;;;;4955669;28;20573;-69
2022/02/20 12:19:21;;;;;;;2.40;0.60;;;10.00;99.90;;;;;;4956701;28;20487;-68
2022/02/20 12:22:07;;;;;;;0.60;0.53;;;9.90;99.90;;;;;;4959421;28;21005;-69
2022/02/20 12:24:47;;;;;;;0.60;0.60;;;10.00;99.90;;;;;;4959161;28;20440;-68
2022/02/20 12:27:16;;;;;;;1.17;0.60;;;9.90;99.90;;;;;;4959128;28;20900;-68
2022/02/20 12:29:49;;;;;;;1.10;0.90;;;10.00;99.90;;;;;;4959325;28;20460;-69
2022/02/20 12:32:17;;;;;;;1.70;0.53;;;10.10;99.90;;;;;;4959532;28;20546;-69
2022/02/20 12:34:56;;;;;;;0.57;0.57;;;10.20;99.90;;;;;;4961245;28;20455;-69
2022/02/20 12:37:25;;;;;;;0.73;0.60;;;10.20;99.90;;;;;;4959869;28;20479;-69
2022/02/20 12:39:58;;;;;;;1.07;0.70;;;10.20;99.90;;;;;;4959204;28;20455;-69
2022/02/20 12:42:26;;;;;;;0.93;0.93;;;10.10;99.90;;;;;;4958893;28;20538;-69
2022/02/20 12:45:01;;;;;;;0.47;0.47;;;10.20;99.90;;;;;;4958805;28;20510;-69
2022/02/20 12:47:33;;;;;;;1.83;0.73;;;10.10;99.90;;;;;;4961787;28;20443;-69
2022/02/20 12:50:00;;;;;;;3.50;0.73;;;10.00;99.90;;;;;;4977850;28;20440;-69
2022/02/20 12:52:33;;;;;;;1.97;0.90;;;10.10;99.90;;;;;;4964781;28;20480;-69
2022/02/20 12:54:59;;;;;;;0.50;0.50;;;10.20;99.90;;;;;;4959556;28;20467;-67
2022/02/20 12:57:28;;;;;;;0.53;0.53;;;10.10;99.90;;;;;;4959297;28;20459;-68
2022/02/20 12:59:58;;;;;;;2.60;1.20;;;10.20;99.90;;;;;;4958893;28;20459;-68
2022/02/20 13:02:36;;;;;;;1.23;0.60;;;10.30;99.90;;;;;;4958636;28;20490;-69
2022/02/20 13:05:05;;;;;;;0.40;0.40;;;10.40;99.90;;;;;;4963744;28;20467;-69
2022/02/20 13:07:40;;;;;;;0.67;0.50;;;10.40;99.90;;;;;;4972065;28;20455;-68
2022/02/20 13:10:07;;;;;;;1.43;0.90;;;10.50;99.90;;;;;;4961178;28;20443;-68
2022/02/20 13:12:34;;;;;;;0.70;0.70;;;10.40;99.90;;;;;;4958473;28;20476;-69
2022/02/20 13:15:05;;;;;;;0.73;0.60;;;10.50;99.90;;;;;;4958668;28;20467;-69
2022/02/20 13:17:45;;;;;;;0.60;0.57;;;10.70;99.90;;;;;;4958476;28;20456;-68
2022/02/20 13:20:50;;;;;;;0.70;0.60;;;10.60;99.90;;;;;;4958107;28;20963;-68
2022/02/20 13:23:20;;;;;;;0.73;0.60;;;10.50;99.90;;;;;;4958475;28;20540;-68
2022/02/20 13:25:49;;;;;;;1.10;0.67;;;10.50;99.90;;;;;;4959153;28;20539;-68
2022/02/20 13:28:17;;;;;;;0.53;0.53;;;10.50;99.90;;;;;;4958276;28;20463;-69
2022/02/20 13:30:46;;;;;;;1.17;0.70;;;10.60;99.90;;;;;;4956913;28;20482;-68
2022/02/20 13:33:15;;;;;;;1.97;0.83;;;10.50;99.90;;;;;;4958293;28;20459;-69
2022/02/20 13:35:43;;;;;;;1.30;0.93;;;10.50;99.90;;;;;;4957809;28;20951;-69
2022/02/20 13:38:12;;;;;;;0.70;0.70;;;10.40;99.90;;;;;;4958096;28;20455;-69
2022/02/20 13:40:43;;;;;;;1.23;0.90;;;10.40;99.90;;;;;;4957865;28;20479;-69
2022/02/20 13:43:13;;;;;;;1.77;0.73;;;10.40;99.90;;;;;;4957854;28;20823;-69
2022/02/20 13:45:52;;;;;;;2.10;0.60;;;10.40;99.90;;;;;;4958006;28;20444;-69
2022/02/20 13:48:33;;;;;;;0.77;0.77;;;10.30;99.90;;;;;;4957728;28;20447;-68
2022/02/20 13:51:25;;;;;;;0.97;0.70;;;10.20;99.90;;;;;;4957775;28;20479;-68
2022/02/20 13:54:04;;;;;;;1.40;0.60;;;10.20;99.90;;;;;;4943459;28;20452;-69
2022/02/20 13:56:49;;;;;;;1.67;0.80;;;10.10;99.90;;;;;;4958019;28;20447;-68
2022/02/20 13:59:17;;;;;;;1.10;0.80;;;10.10;99.90;;;;;;4958280;28;20490;-69
2022/02/20 14:01:49;;;;;;;1.37;0.70;;;10.00;99.90;;;;;;4957296;28;20483;-69
2022/02/20 14:04:23;;;;;;;1.10;0.80;;;10.10;99.90;;;;;;4957564;28;20471;-69
2022/02/20 14:06:53;;;;;;;0.50;0.50;;;10.10;99.90;;;;;;4957789;28;20443;-67
2022/02/20 14:09:24;;;;;;;0.80;0.80;;;10.10;99.90;;;;;;4957509;28;20975;-68
2022/02/20 14:11:50;;;;;;;0.60;0.60;;;10.00;99.90;;;;;;4958679;28;20479;-68
2022/02/20 14:14:18;;;;;;;2.00;0.80;;;10.00;99.90;;;;;;4957710;28;20437;-67
2022/02/20 14:16:57;;;;;;;0.70;0.70;;;10.10;99.90;;;;;;4957530;28;20462;-69
2022/02/20 14:19:24;;;;;;;0.50;0.50;;;10.00;99.90;;;;;;4957504;28;20462;-68
2022/02/20 14:21:55;;;;;;;1.07;0.97;;;10.10;99.90;;;;;;4960122;28;20990;-69
2022/02/20 14:24:22;;;;;;;0.90;0.90;;;10.00;99.90;;;;;;4959399;28;20476;-69
2022/02/20 14:26:50;;;;;;;0.70;0.50;;;10.10;99.90;;;;;;4957687;28;20868;-68
2022/02/20 14:29:24;;;;;;;0.60;0.60;;;10.10;99.90;;;;;;4957370;28;20947;-69
2022/02/20 14:32:01;;;;;;;1.00;0.67;;;10.10;99.90;;;;;;4957496;28;20486;-68
2022/02/20 14:34:28;;;;;;;0.80;0.80;;;10.00;99.90;;;;;;4958571;28;20769;-68
2022/02/20 14:37:05;;;;;;;0.73;0.70;;;9.90;99.90;;;;;;4958880;28;20463;-68
2022/02/20 14:39:31;;;;;;;0.70;0.70;;;9.90;99.90;;;;;;4962544;28;20498;-69
2022/02/20 14:42:00;;;;;;;1.00;0.60;;;9.90;99.90;;;;;;4958400;28;20476;-70
2022/02/20 14:44:27;;;;;;;0.67;0.67;;;9.90;99.90;;;;;;4956870;28;20479;-69
2022/02/20 14:46:55;;;;;;;0.70;0.70;;;9.80;99.90;;;;;;4957222;28;20460;-68
2022/02/20 14:49:23;;;;;;;1.67;0.60;;;9.80;99.90;;;;;;4957038;28;20456;-69
2022/02/20 14:51:50;;;;;;;0.60;0.60;;;9.80;99.90;;;;;;4956867;28;20566;-69
2022/02/20 14:54:18;;;;;;;0.40;0.40;;;9.90;99.90;;;;;;4956178;28;20963;-69
2022/02/20 14:56:45;;;;;;;0.60;0.60;;;9.90;99.90;;;;;;4957277;28;20514;-68
2022/02/20 14:59:12;;;;;;;0.53;0.53;;;9.90;99.90;;;;;;4958494;28;20458;-68
2022/02/20 15:01:38;;;;;;;0.60;0.60;;;9.90;99.90;;;;;;4956362;28;20535;-68
2022/02/20 15:04:06;;;;;;;0.50;0.50;;;10.00;99.90;;;;;;4956244;28;20514;-69
2022/02/20 15:06:34;;;;;;;0.73;0.73;;;10.00;99.90;;;;;;4956290;28;20466;-70
2022/02/20 15:09:01;;;;;;;1.17;0.60;;;10.10;99.90;;;;;;4956487;28;20851;-68
2022/02/20 15:11:32;;;;;;;0.73;0.60;;;10.00;99.90;;;;;;4958703;28;20479;-70
2022/02/20 15:13:59;;;;;;;1.30;0.50;;;10.10;99.90;;;;;;4959276;28;20447;-68
2022/02/20 15:16:26;;;;;;;1.60;0.57;;;10.10;99.90;;;;;;4956712;28;20962;-68
2022/02/20 15:18:53;;;;;;;0.43;0.43;;;10.00;99.90;;;;;;4956484;28;20467;-68
2022/02/20 15:21:19;;;;;;;0.60;0.60;;;10.10;99.90;;;;;;4957156;28;20483;-69
2022/02/20 15:23:48;;;;;;;0.67;0.60;;;10.00;99.90;;;;;;4957233;28;20468;-68
2022/02/20 15:26:15;;;;;;;0.57;0.57;;;10.10;99.90;;;;;;4957558;28;20456;-70
2022/02/20 15:28:42;;;;;;;0.70;0.70;;;10.10;99.90;;;;;;4956782;28;20990;-67
2022/02/20 15:31:10;;;;;;;0.70;0.70;;;10.20;99.90;;;;;;4958208;28;20491;-70
2022/02/20 15:33:37;;;;;;;0.70;0.70;;;10.20;99.90;;;;;;4956816;28;20463;-69
2022/02/20 15:36:04;;;;;;;0.67;0.67;;;10.30;99.90;;;;;;4956380;28;20456;-69
2022/02/20 15:38:30;;;;;;;0.90;0.90;;;10.30;99.90;;;;;;4956823;28;20538;-69
2022/02/20 15:40:59;;;;;;;0.53;0.53;;;10.20;99.90;;;;;;4957917;28;20894;-69
2022/02/20 15:43:25;;;;;;;0.50;0.50;;;10.20;99.90;;;;;;4957569;28;20483;-69
2022/02/20 15:45:52;;;;;;;0.60;0.60;;;10.00;99.90;;;;;;4958006;28;20487;-68
2022/02/20 15:48:22;;;;;;;0.57;0.50;;;10.00;99.90;;;;;;4957928;28;20463;-70
2022/02/20 15:50:50;;;;;;;0.97;0.60;;;10.00;99.90;;;;;;4957749;28;20472;-69
2022/02/20 15:53:17;;;;;;;0.67;0.53;;;10.00;99.90;;;;;;4957742;28;20519;-69
2022/02/20 15:55:47;;;;;;;0.50;0.50;;;10.00;99.90;;;;;;4962104;28;20456;-70
2022/02/20 15:58:15;;;;;;;0.70;0.50;;;10.00;99.90;;;;;;4962745;28;20498;-69
2022/02/20 16:00:42;;;;;;;2.00;0.80;;;10.00;99.90;;;;;;4962224;28;20487;-69
2022/02/20 16:03:09;;;;;;;0.50;0.50;;;9.90;99.90;;;;;;4961859;28;20432;-68
2022/02/20 16:05:36;;;;;;;0.50;0.50;;;9.90;99.90;;;;;;4962197;28;20488;-69
2022/02/20 16:08:04;;;;;;;0.40;0.40;;;9.90;99.90;;;;;;4961682;28;20447;-67
2022/02/20 16:10:30;;;;;;;3.70;0.63;;;10.00;99.90;;;;;;4971469;28;20452;-68
2022/02/20 16:12:57;;;;;;;1.07;0.70;;;10.00;99.90;;;;;;4980277;28;20448;-68
2022/02/20 16:15:25;;;;;;;0.63;0.63;;;10.00;99.90;;;;;;4977967;28;20456;-69
2022/02/20 16:17:52;;;;;;;0.50;0.50;;;10.00;99.90;;;;;;4961946;28;20444;-70
2022/02/20 16:20:19;;;;;;;0.70;0.50;;;10.10;99.90;;;;;;4962019;28;20447;-70
2022/02/20 16:22:45;;;;;;;0.77;0.70;;;10.10;99.90;;;;;;4961368;28;20931;-69
2022/02/20 16:25:12;;;;;;;1.50;0.73;;;10.00;99.90;;;;;;4961443;28;20495;-68
2022/02/20 16:27:39;;;;;;;0.57;0.57;;;10.00;99.90;;;;;;4961470;28;20532;-69
2022/02/20 16:30:23;;;;;;;0.83;0.50;;;10.10;99.90;;;;;;4961926;28;20440;-68
2022/02/20 16:32:51;;;;;;;1.63;0.50;;;10.10;99.90;;;;;;4961376;28;20463;-70
2022/02/20 16:35:19;;;;;;;0.40;0.40;;;10.00;99.90;;;;;;4960310;28;20447;-68
2022/02/20 16:37:46;;;;;;;0.50;0.50;;;10.10;99.90;;;;;;4961985;28;20452;-69
2022/02/20 16:40:13;;;;;;;0.90;0.90;;;10.10;99.90;;;;;;4960442;28;20436;-69
2022/02/20 16:42:40;;;;;;;0.47;0.47;;;10.00;99.90;;;;;;4961033;28;20476;-70
2022/02/20 16:45:08;;;;;;;0.83;0.83;;;10.00;99.90;;;;;;4962348;28;20486;-70
2022/02/20 16:47:34;;;;;;;0.50;0.50;;;10.00;99.90;;;;;;4961791;28;20455;-69
2022/02/20 16:50:03;;;;;;;1.07;0.97;;;10.10;99.90;;;;;;4961652;28;20460;-69
2022/02/20 16:52:30;;;;;;;0.50;0.50;;;10.00;99.90;;;;;;4961376;28;20468;-70
2022/02/20 16:54:56;;;;;;;0.60;0.60;;;10.00;99.90;;;;;;4960007;28;20459;-70
2022/02/20 16:57:23;;;;;;;0.70;0.70;;;10.00;99.90;;;;;;4960765;28;20459;-70
2022/02/20 16:59:50;;;;;;;1.20;0.70;;;10.00;99.90;;;;;;4960714;28;20466;-69
2022/02/20 17:02:16;;;;;;;0.60;0.60;;;10.00;99.90;;;;;;4959907;28;20888;-69
2022/02/20 17:04:43;;;;;;;0.50;0.50;;;10.10;99.90;;;;;;4960526;28;20484;-70
2022/02/20 17:07:11;;;;;;;0.80;0.70;;;10.10;99.90;;;;;;4960199;28;20463;-69
2022/02/20 17:09:38;;;;;;;0.70;0.70;;;10.00;99.90;;;;;;4959590;28;20463;-69
2022/02/20 17:12:05;;;;;;;0.97;0.70;;;10.00;99.90;;;;;;4959976;28;20486;-70
2022/02/20 17:14:33;;;;;;;0.80;0.80;;;10.00;99.90;;;;;;4960026;28;20528;-69
2022/02/20 17:17:00;;;;;;;1.10;1.10;;;10.00;99.90;;;;;;4960057;28;20506;-69
2022/02/20 17:19:26;;;;;;;0.90;0.60;;;10.00;99.90;;;;;;4959844;28;20463;-70
2022/02/20 17:21:53;;;;;;;1.53;1.43;;;10.00;99.90;;;;;;4960137;28;20567;-69
2022/02/20 17:24:21;;;;;;;0.97;0.97;;;10.00;99.90;;;;;;4959626;28;20843;-69
2022/02/20 17:26:48;;;;;;;1.97;1.87;;;10.00;99.90;;;;;;4959646;28;20455;-69
2022/02/20 17:29:14;;;;;;;1.37;0.90;;;10.00;99.90;;;;;;4959788;28;20451;-69
2022/02/20 17:31:41;;;;;;;0.80;0.80;;;10.00;99.90;;;;;;4959598;28;20509;-69
2022/02/20 17:34:08;;;;;;;0.90;0.90;;;10.00;99.90;;;;;;4959261;28;20511;-68
2022/02/20 17:36:35;;;;;;;1.00;1.00;;;10.10;99.90;;;;;;4960143;28;20452;-67
2022/02/20 17:39:01;;;;;;;1.10;1.00;;;10.00;99.90;;;;;;4959558;28;20456;-69
2022/02/20 17:41:30;;;;;;;1.57;0.97;;;10.00;99.90;;;;;;4962953;28;20500;-69
2022/02/20 17:43:57;;;;;;;0.80;0.80;;;10.10;99.90;;;;;;4972725;28;20506;-68
2022/02/20 17:46:24;;;;;;;0.83;0.83;;;10.00;99.90;;;;;;4963549;28;20451;-69
2022/02/20 17:48:51;;;;;;;0.50;0.50;;;10.10;99.90;;;;;;4962183;28;20456;-69
2022/02/20 17:51:18;;;;;;;0.50;0.50;;;10.00;99.90;;;;;;4960419;28;20486;-69
2022/02/20 17:53:45;;;;;;;0.60;0.60;;;10.00;99.90;;;;;;4960001;28;20451;-72
2022/02/20 17:56:12;;;;;;;1.80;0.80;;;10.00;99.90;;;;;;4959853;28;20459;-69
2022/02/20 17:58:40;;;;;;;0.80;0.80;;;9.90;99.90;;;;;;4960880;28;20448;-69
2022/02/20 18:01:07;;;;;;;2.67;0.80;;;10.00;99.90;;;;;;4962543;28;20488;-69